ENQA

Troll A Platform Heliport

Norway
METAR ENQA 192220Z AUTO 03009KT 9999NDV FEW020/// SCT028/// 08/05 Q1035 W06/S3
Observed Flight Rules
Nov-19 @ 22:20 UTC (18 minutes ago)
Wind Clouds
30° at 9 knots
  • Few at 2,000' AGL
  • Scattered at 2,800' AGL
Temperatures Readings
Current 8°C / 46°F
Dewpoint 5°C / 41°F
Humidity 82%
Altimeter 30.56" Hg
Pressure 1035 hPa
Elevation 20
METAR ENQA 192220Z AUTO 03009KT 9999NDV FEW020/// SCT028/// 08/05 Q1035 W06/S3
Observed Flight Rules
Nov-19 @ 22:20 UTC
(18 minutes ago)
Wind
30° at 9 knots
Clouds
  • Few at 2,000' AGL
  • Scattered at 2,800' AGL
Temperature Dewpoint
8°C / 46°F 5°C / 41°F
Humidity Altimeter Pressure
82% 30.56" Hg 1035 hPa